sensor_id;sensor_type;location;lat;lon;timestamp;temperature;humidity
28677;DHT22;15858;48.338;11.078;2023-02-11T00:00:20;-2.30;99.90
28677;DHT22;15858;48.338;11.078;2023-02-11T00:02:47;-2.30;99.90
28677;DHT22;15858;48.338;11.078;2023-02-11T00:05:14;-2.30;99.90
28677;DHT22;15858;48.338;11.078;2023-02-11T00:07:40;-2.30;99.90
28677;DHT22;15858;48.338;11.078;2023-02-11T00:10:07;-2.40;99.90
28677;DHT22;15858;48.338;11.078;2023-02-11T00:12:35;-2.40;99.90
28677;DHT22;15858;48.338;11.078;2023-02-11T00:15:03;-2.30;99.90
28677;DHT22;15858;48.338;11.078;2023-02-11T00:17:31;-2.40;99.90
28677;DHT22;15858;48.338;11.078;2023-02-11T00:19:57;-2.40;99.90
28677;DHT22;15858;48.338;11.078;2023-02-11T00:22:24;-2.40;99.90
28677;DHT22;15858;48.338;11.078;2023-02-11T00:24:51;-2.40;99.90
28677;DHT22;15858;48.338;11.078;2023-02-11T00:27:17;-2.40;99.90
28677;DHT22;15858;48.338;11.078;2023-02-11T00:29:44;-2.40;99.90
28677;DHT22;15858;48.338;11.078;2023-02-11T00:32:11;-2.40;99.90
28677;DHT22;15858;48.338;11.078;2023-02-11T00:34:37;-2.30;99.90
28677;DHT22;15858;48.338;11.078;2023-02-11T00:37:04;-2.20;99.90
28677;DHT22;15858;48.338;11.078;2023-02-11T00:39:31;-2.20;99.90
28677;DHT22;15858;48.338;11.078;2023-02-11T00:41:58;-2.20;99.90
28677;DHT22;15858;48.338;11.078;2023-02-11T00:44:25;-2.20;99.90
28677;DHT22;15858;48.338;11.078;2023-02-11T00:46:51;-2.10;99.90
28677;DHT22;15858;48.338;11.078;2023-02-11T00:49:18;-2.10;99.90
28677;DHT22;15858;48.338;11.078;2023-02-11T00:51:45;-2.00;99.90
28677;DHT22;15858;48.338;11.078;2023-02-11T00:54:11;-2.00;99.90
28677;DHT22;15858;48.338;11.078;2023-02-11T00:56:38;-2.00;99.90
28677;DHT22;15858;48.338;11.078;2023-02-11T00:59:04;-2.00;99.90
28677;DHT22;15858;48.338;11.078;2023-02-11T01:01:33;-2.00;99.90
28677;DHT22;15858;48.338;11.078;2023-02-11T01:04:00;-2.00;99.90
28677;DHT22;15858;48.338;11.078;2023-02-11T01:06:27;-2.00;99.90
28677;DHT22;15858;48.338;11.078;2023-02-11T01:08:53;-2.00;99.90
28677;DHT22;15858;48.338;11.078;2023-02-11T01:11:21;-2.10;99.90
28677;DHT22;15858;48.338;11.078;2023-02-11T01:13:48;-2.10;99.90
28677;DHT22;15858;48.338;11.078;2023-02-11T01:16:16;-2.10;99.90
28677;DHT22;15858;48.338;11.078;2023-02-11T01:18:43;-2.20;99.90
28677;DHT22;15858;48.338;11.078;2023-02-11T01:21:10;-2.20;99.90
28677;DHT22;15858;48.338;11.078;2023-02-11T01:23:37;-2.20;99.90
28677;DHT22;15858;48.338;11.078;2023-02-11T01:26:04;-2.30;99.90
28677;DHT22;15858;48.338;11.078;2023-02-11T01:28:31;-2.30;99.90
28677;DHT22;15858;48.338;11.078;2023-02-11T01:30:59;-2.30;99.90
28677;DHT22;15858;48.338;11.078;2023-02-11T01:33:26;-2.30;99.90
28677;DHT22;15858;48.338;11.078;2023-02-11T01:35:53;-2.40;99.90
28677;DHT22;15858;48.338;11.078;2023-02-11T01:38:24;-2.40;99.90
28677;DHT22;15858;48.338;11.078;2023-02-11T01:40:59;-2.40;99.90
28677;DHT22;15858;48.338;11.078;2023-02-11T01:43:29;-2.40;99.90
28677;DHT22;15858;48.338;11.078;2023-02-11T01:48:47;-2.40;99.90
28677;DHT22;15858;48.338;11.078;2023-02-11T01:51:20;-2.50;99.90
28677;DHT22;15858;48.338;11.078;2023-02-11T01:53:49;-2.50;99.90
28677;DHT22;15858;48.338;11.078;2023-02-11T01:56:16;-2.50;99.90
28677;DHT22;15858;48.338;11.078;2023-02-11T01:58:44;-2.50;99.90
28677;DHT22;15858;48.338;11.078;2023-02-11T02:01:15;-2.60;99.90
28677;DHT22;15858;48.338;11.078;2023-02-11T02:03:44;-2.60;99.90
28677;DHT22;15858;48.338;11.078;2023-02-11T02:06:23;-2.60;99.90
28677;DHT22;15858;48.338;11.078;2023-02-11T02:08:56;-2.60;99.90
28677;DHT22;15858;48.338;11.078;2023-02-11T02:11:24;-2.70;99.90
28677;DHT22;15858;48.338;11.078;2023-02-11T02:13:51;-2.70;99.90
28677;DHT22;15858;48.338;11.078;2023-02-11T02:16:20;-2.70;99.90
28677;DHT22;15858;48.338;11.078;2023-02-11T02:19:04;-2.80;99.90
28677;DHT22;15858;48.338;11.078;2023-02-11T02:32:44;-2.70;99.90
28677;DHT22;15858;48.338;11.078;2023-02-11T02:38:19;-2.70;99.90
28677;DHT22;15858;48.338;11.078;2023-02-11T02:40:52;-2.70;99.90
28677;DHT22;15858;48.338;11.078;2023-02-11T02:43:21;-2.70;99.90
28677;DHT22;15858;48.338;11.078;2023-02-11T02:45:48;-2.70;99.90
28677;DHT22;15858;48.338;11.078;2023-02-11T02:48:24;-2.70;99.90
28677;DHT22;15858;48.338;11.078;2023-02-11T02:51:10;-2.60;99.90
28677;DHT22;15858;48.338;11.078;2023-02-11T03:04:47;-2.50;99.90
28677;DHT22;15858;48.338;11.078;2023-02-11T03:12:32;-2.40;99.90
28677;DHT22;15858;48.338;11.078;2023-02-11T03:15:00;-2.40;99.90
28677;DHT22;15858;48.338;11.078;2023-02-11T03:17:29;-2.30;99.90
28677;DHT22;15858;48.338;11.078;2023-02-11T03:19:59;-2.20;99.90
28677;DHT22;15858;48.338;11.078;2023-02-11T03:22:38;-2.20;99.90
28677;DHT22;15858;48.338;11.078;2023-02-11T03:25:06;-2.30;99.90
28677;DHT22;15858;48.338;11.078;2023-02-11T03:28:00;-2.30;99.90
28677;DHT22;15858;48.338;11.078;2023-02-11T03:30:33;-2.30;99.90
28677;DHT22;15858;48.338;11.078;2023-02-11T03:33:07;-2.30;99.90
28677;DHT22;15858;48.338;11.078;2023-02-11T03:35:49;-2.30;99.90
28677;DHT22;15858;48.338;11.078;2023-02-11T03:38:22;-2.30;99.90
28677;DHT22;15858;48.338;11.078;2023-02-11T03:40:52;-2.20;99.90
28677;DHT22;15858;48.338;11.078;2023-02-11T03:43:33;-2.30;99.90
28677;DHT22;15858;48.338;11.078;2023-02-11T03:46:01;-2.30;99.90
28677;DHT22;15858;48.338;11.078;2023-02-11T03:48:40;-2.20;99.90
28677;DHT22;15858;48.338;11.078;2023-02-11T03:51:09;-2.20;99.90
28677;DHT22;15858;48.338;11.078;2023-02-11T03:53:38;-2.20;99.90
28677;DHT22;15858;48.338;11.078;2023-02-11T03:56:10;-2.20;99.90
28677;DHT22;15858;48.338;11.078;2023-02-11T03:58:38;-2.10;99.90
28677;DHT22;15858;48.338;11.078;2023-02-11T04:01:05;-2.00;99.90
28677;DHT22;15858;48.338;11.078;2023-02-11T04:03:32;-2.00;99.90
28677;DHT22;15858;48.338;11.078;2023-02-11T04:05:59;-2.00;99.90
28677;DHT22;15858;48.338;11.078;2023-02-11T04:08:25;-2.00;99.90
28677;DHT22;15858;48.338;11.078;2023-02-11T04:10:52;-2.10;99.90
28677;DHT22;15858;48.338;11.078;2023-02-11T04:13:19;-2.10;99.90
28677;DHT22;15858;48.338;11.078;2023-02-11T04:15:45;-2.10;99.90
28677;DHT22;15858;48.338;11.078;2023-02-11T04:18:14;-2.10;99.90
28677;DHT22;15858;48.338;11.078;2023-02-11T04:20:41;-2.10;99.90
28677;DHT22;15858;48.338;11.078;2023-02-11T04:23:08;-2.20;99.90
28677;DHT22;15858;48.338;11.078;2023-02-11T04:25:35;-2.30;99.90
28677;DHT22;15858;48.338;11.078;2023-02-11T04:28:01;-2.30;99.90
28677;DHT22;15858;48.338;11.078;2023-02-11T04:30:28;-2.30;99.90
28677;DHT22;15858;48.338;11.078;2023-02-11T04:32:54;-2.30;99.90
28677;DHT22;15858;48.338;11.078;2023-02-11T04:35:21;-2.30;99.90
28677;DHT22;15858;48.338;11.078;2023-02-11T04:37:48;-2.30;99.90
28677;DHT22;15858;48.338;11.078;2023-02-11T04:40:14;-2.40;99.90
28677;DHT22;15858;48.338;11.078;2023-02-11T04:42:41;-2.40;99.90
28677;DHT22;15858;48.338;11.078;2023-02-11T04:45:08;-2.50;99.90
28677;DHT22;15858;48.338;11.078;2023-02-11T04:47:34;-2.50;99.90
28677;DHT22;15858;48.338;11.078;2023-02-11T04:50:01;-2.50;99.90
28677;DHT22;15858;48.338;11.078;2023-02-11T04:52:27;-2.50;99.90
28677;DHT22;15858;48.338;11.078;2023-02-11T04:54:54;-2.50;99.90
28677;DHT22;15858;48.338;11.078;2023-02-11T04:57:21;-2.50;99.90
28677;DHT22;15858;48.338;11.078;2023-02-11T04:59:47;-2.50;99.90
28677;DHT22;15858;48.338;11.078;2023-02-11T05:02:14;-2.50;99.90
28677;DHT22;15858;48.338;11.078;2023-02-11T05:04:40;-2.50;99.90
28677;DHT22;15858;48.338;11.078;2023-02-11T05:07:07;-2.40;99.90
28677;DHT22;15858;48.338;11.078;2023-02-11T05:09:34;-2.40;99.90
28677;DHT22;15858;48.338;11.078;2023-02-11T05:12:00;-2.40;99.90
28677;DHT22;15858;48.338;11.078;2023-02-11T05:14:27;-2.40;99.90
28677;DHT22;15858;48.338;11.078;2023-02-11T05:16:53;-2.30;99.90
28677;DHT22;15858;48.338;11.078;2023-02-11T05:19:20;-2.30;99.90
28677;DHT22;15858;48.338;11.078;2023-02-11T05:21:47;-2.30;99.90
28677;DHT22;15858;48.338;11.078;2023-02-11T05:24:28;-2.30;99.90
28677;DHT22;15858;48.338;11.078;2023-02-11T05:26:55;-2.20;99.90
28677;DHT22;15858;48.338;11.078;2023-02-11T05:29:21;-2.20;99.90
28677;DHT22;15858;48.338;11.078;2023-02-11T05:31:48;-2.20;99.90
28677;DHT22;15858;48.338;11.078;2023-02-11T05:34:15;-2.10;99.90
28677;DHT22;15858;48.338;11.078;2023-02-11T05:36:41;-2.10;99.90
28677;DHT22;15858;48.338;11.078;2023-02-11T05:39:08;-2.10;99.90
28677;DHT22;15858;48.338;11.078;2023-02-11T05:41:34;-2.00;99.90
28677;DHT22;15858;48.338;11.078;2023-02-11T05:44:01;-2.00;99.90
28677;DHT22;15858;48.338;11.078;2023-02-11T05:46:28;-1.90;99.90
28677;DHT22;15858;48.338;11.078;2023-02-11T05:48:54;-1.90;99.90
28677;DHT22;15858;48.338;11.078;2023-02-11T05:51:22;-1.90;99.90
28677;DHT22;15858;48.338;11.078;2023-02-11T05:53:48;-1.80;99.90
28677;DHT22;15858;48.338;11.078;2023-02-11T05:56:15;-1.70;99.90
28677;DHT22;15858;48.338;11.078;2023-02-11T05:58:41;-1.70;99.90
28677;DHT22;15858;48.338;11.078;2023-02-11T06:01:08;-1.70;99.90
28677;DHT22;15858;48.338;11.078;2023-02-11T06:03:34;-1.60;99.90
28677;DHT22;15858;48.338;11.078;2023-02-11T06:06:01;-1.60;99.90
28677;DHT22;15858;48.338;11.078;2023-02-11T06:08:28;-1.50;99.90
28677;DHT22;15858;48.338;11.078;2023-02-11T06:10:54;-1.50;99.90
28677;DHT22;15858;48.338;11.078;2023-02-11T06:13:21;-1.40;99.90
28677;DHT22;15858;48.338;11.078;2023-02-11T06:15:58;-1.40;99.90
28677;DHT22;15858;48.338;11.078;2023-02-11T06:18:25;-1.30;99.90
28677;DHT22;15858;48.338;11.078;2023-02-11T06:20:52;-1.30;99.90
28677;DHT22;15858;48.338;11.078;2023-02-11T06:23:18;-1.30;99.90
28677;DHT22;15858;48.338;11.078;2023-02-11T06:25:45;-1.30;99.90
28677;DHT22;15858;48.338;11.078;2023-02-11T06:28:12;-1.30;99.90
28677;DHT22;15858;48.338;11.078;2023-02-11T06:30:39;-1.20;99.90
28677;DHT22;15858;48.338;11.078;2023-02-11T06:33:05;-1.20;99.90
28677;DHT22;15858;48.338;11.078;2023-02-11T06:35:32;-1.10;99.90
28677;DHT22;15858;48.338;11.078;2023-02-11T06:37:59;-1.10;99.90
28677;DHT22;15858;48.338;11.078;2023-02-11T06:40:25;-1.00;99.90
28677;DHT22;15858;48.338;11.078;2023-02-11T06:42:52;-1.00;99.90
28677;DHT22;15858;48.338;11.078;2023-02-11T06:45:18;-1.00;99.90
28677;DHT22;15858;48.338;11.078;2023-02-11T06:47:45;-1.00;99.90
28677;DHT22;15858;48.338;11.078;2023-02-11T06:50:13;-1.00;99.90
28677;DHT22;15858;48.338;11.078;2023-02-11T06:52:39;-0.90;99.90
28677;DHT22;15858;48.338;11.078;2023-02-11T06:55:06;-0.90;99.90
28677;DHT22;15858;48.338;11.078;2023-02-11T06:57:33;-0.90;99.90
28677;DHT22;15858;48.338;11.078;2023-02-11T06:59:59;-0.90;99.90
28677;DHT22;15858;48.338;11.078;2023-02-11T07:02:26;-0.80;99.90
28677;DHT22;15858;48.338;11.078;2023-02-11T07:04:53;-0.80;99.90
28677;DHT22;15858;48.338;11.078;2023-02-11T07:07:19;-0.80;99.90
28677;DHT22;15858;48.338;11.078;2023-02-11T07:09:46;-0.70;99.90
28677;DHT22;15858;48.338;11.078;2023-02-11T07:12:13;-0.80;99.90
28677;DHT22;15858;48.338;11.078;2023-02-11T07:14:39;-0.70;99.90
28677;DHT22;15858;48.338;11.078;2023-02-11T07:17:06;-0.70;99.90
28677;DHT22;15858;48.338;11.078;2023-02-11T07:19:33;-0.60;99.90
28677;DHT22;15858;48.338;11.078;2023-02-11T07:21:59;-0.60;99.90
28677;DHT22;15858;48.338;11.078;2023-02-11T07:24:26;-0.60;99.90
28677;DHT22;15858;48.338;11.078;2023-02-11T07:26:53;-0.60;99.90
28677;DHT22;15858;48.338;11.078;2023-02-11T07:29:19;-0.60;99.90
28677;DHT22;15858;48.338;11.078;2023-02-11T07:31:46;-0.50;99.90
28677;DHT22;15858;48.338;11.078;2023-02-11T07:34:13;-0.50;99.90
28677;DHT22;15858;48.338;11.078;2023-02-11T07:36:39;-0.50;99.90
28677;DHT22;15858;48.338;11.078;2023-02-11T07:39:06;-0.50;99.90
28677;DHT22;15858;48.338;11.078;2023-02-11T07:41:32;-0.50;99.90
28677;DHT22;15858;48.338;11.078;2023-02-11T07:44:03;-0.40;99.90
28677;DHT22;15858;48.338;11.078;2023-02-11T07:46:29;-0.40;99.90
28677;DHT22;15858;48.338;11.078;2023-02-11T07:48:56;-0.30;99.90
28677;DHT22;15858;48.338;11.078;2023-02-11T07:51:28;-0.30;99.90
28677;DHT22;15858;48.338;11.078;2023-02-11T07:53:57;-0.30;99.90
28677;DHT22;15858;48.338;11.078;2023-02-11T07:56:24;-0.20;99.90
28677;DHT22;15858;48.338;11.078;2023-02-11T07:58:51;-0.30;99.90
28677;DHT22;15858;48.338;11.078;2023-02-11T08:01:20;-0.20;99.90
28677;DHT22;15858;48.338;11.078;2023-02-11T08:03:47;-0.20;99.90
28677;DHT22;15858;48.338;11.078;2023-02-11T08:06:15;-0.10;99.90
28677;DHT22;15858;48.338;11.078;2023-02-11T08:08:42;-0.10;99.90
28677;DHT22;15858;48.338;11.078;2023-02-11T08:11:11;0.00;99.90
28677;DHT22;15858;48.338;11.078;2023-02-11T08:13:39;0.00;99.90
28677;DHT22;15858;48.338;11.078;2023-02-11T08:16:06;0.10;99.90
28677;DHT22;15858;48.338;11.078;2023-02-11T08:18:34;0.10;99.90
28677;DHT22;15858;48.338;11.078;2023-02-11T08:21:08;0.30;99.90
28677;DHT22;15858;48.338;11.078;2023-02-11T08:23:36;0.40;99.90
28677;DHT22;15858;48.338;11.078;2023-02-11T08:26:05;0.50;99.90
28677;DHT22;15858;48.338;11.078;2023-02-11T08:28:35;0.50;99.90
28677;DHT22;15858;48.338;11.078;2023-02-11T08:31:10;0.70;99.90
28677;DHT22;15858;48.338;11.078;2023-02-11T08:33:37;0.80;99.90
28677;DHT22;15858;48.338;11.078;2023-02-11T08:36:15;0.80;99.90
28677;DHT22;15858;48.338;11.078;2023-02-11T08:38:43;0.90;99.90
28677;DHT22;15858;48.338;11.078;2023-02-11T08:41:10;0.80;99.90
28677;DHT22;15858;48.338;11.078;2023-02-11T08:43:37;0.80;99.90
28677;DHT22;15858;48.338;11.078;2023-02-11T08:46:04;0.90;99.90
28677;DHT22;15858;48.338;11.078;2023-02-11T08:48:30;0.90;99.90
28677;DHT22;15858;48.338;11.078;2023-02-11T08:50:57;1.00;99.90
28677;DHT22;15858;48.338;11.078;2023-02-11T08:53:24;1.10;99.90
28677;DHT22;15858;48.338;11.078;2023-02-11T08:55:53;1.20;99.90
28677;DHT22;15858;48.338;11.078;2023-02-11T08:58:20;1.30;99.90
28677;DHT22;15858;48.338;11.078;2023-02-11T09:00:48;1.40;99.90
28677;DHT22;15858;48.338;11.078;2023-02-11T09:03:15;1.40;99.90
28677;DHT22;15858;48.338;11.078;2023-02-11T09:05:47;1.60;99.90
28677;DHT22;15858;48.338;11.078;2023-02-11T09:08:14;1.70;99.90
28677;DHT22;15858;48.338;11.078;2023-02-11T09:10:41;1.70;99.90
28677;DHT22;15858;48.338;11.078;2023-02-11T09:13:08;1.90;99.90
28677;DHT22;15858;48.338;11.078;2023-02-11T09:15:35;1.90;99.90
28677;DHT22;15858;48.338;11.078;2023-02-11T09:18:02;2.00;99.90
28677;DHT22;15858;48.338;11.078;2023-02-11T09:20:29;2.00;99.90
28677;DHT22;15858;48.338;11.078;2023-02-11T09:22:57;2.10;99.90
28677;DHT22;15858;48.338;11.078;2023-02-11T09:25:25;2.00;99.90
28677;DHT22;15858;48.338;11.078;2023-02-11T09:27:51;2.10;99.90
28677;DHT22;15858;48.338;11.078;2023-02-11T09:30:18;2.10;99.90
28677;DHT22;15858;48.338;11.078;2023-02-11T09:32:45;2.10;99.90
28677;DHT22;15858;48.338;11.078;2023-02-11T09:35:11;2.10;99.90
28677;DHT22;15858;48.338;11.078;2023-02-11T09:37:38;2.10;99.90
28677;DHT22;15858;48.338;11.078;2023-02-11T09:40:05;2.10;99.90
28677;DHT22;15858;48.338;11.078;2023-02-11T09:42:51;2.20;99.90
28677;DHT22;15858;48.338;11.078;2023-02-11T09:45:29;2.30;99.90
28677;DHT22;15858;48.338;11.078;2023-02-11T09:48:09;2.30;99.90
28677;DHT22;15858;48.338;11.078;2023-02-11T09:50:43;2.30;99.90
28677;DHT22;15858;48.338;11.078;2023-02-11T09:53:25;2.30;99.90
28677;DHT22;15858;48.338;11.078;2023-02-11T09:55:58;2.40;99.90
28677;DHT22;15858;48.338;11.078;2023-02-11T09:58:27;2.40;99.90
28677;DHT22;15858;48.338;11.078;2023-02-11T10:23:29;4.10;99.90
28677;DHT22;15858;48.338;11.078;2023-02-11T10:25:58;4.10;99.90
28677;DHT22;15858;48.338;11.078;2023-02-11T10:28:30;4.10;99.90
28677;DHT22;15858;48.338;11.078;2023-02-11T10:31:08;4.10;99.90
28677;DHT22;15858;48.338;11.078;2023-02-11T10:36:25;4.00;99.90
28677;DHT22;15858;48.338;11.078;2023-02-11T10:38:53;4.00;99.90
28677;DHT22;15858;48.338;11.078;2023-02-11T10:41:23;4.00;99.90
28677;DHT22;15858;48.338;11.078;2023-02-11T10:43:52;3.90;99.90
28677;DHT22;15858;48.338;11.078;2023-02-11T10:46:23;3.90;99.90
28677;DHT22;15858;48.338;11.078;2023-02-11T10:48:52;4.00;99.90
28677;DHT22;15858;48.338;11.078;2023-02-11T10:51:22;4.00;99.90
28677;DHT22;15858;48.338;11.078;2023-02-11T10:56:33;4.10;99.90
28677;DHT22;15858;48.338;11.078;2023-02-11T10:59:04;4.30;99.90
28677;DHT22;15858;48.338;11.078;2023-02-11T11:01:51;4.40;99.90
28677;DHT22;15858;48.338;11.078;2023-02-11T11:04:33;4.50;99.90
28677;DHT22;15858;48.338;11.078;2023-02-11T11:07:24;4.50;99.90
28677;DHT22;15858;48.338;11.078;2023-02-11T11:09:56;4.50;99.90
28677;DHT22;15858;48.338;11.078;2023-02-11T11:15:28;4.70;99.90
28677;DHT22;15858;48.338;11.078;2023-02-11T11:18:09;4.90;99.90
28677;DHT22;15858;48.338;11.078;2023-02-11T11:21:05;5.10;99.90
28677;DHT22;15858;48.338;11.078;2023-02-11T11:23:35;5.40;99.90
28677;DHT22;15858;48.338;11.078;2023-02-11T11:26:12;5.40;99.90
28677;DHT22;15858;48.338;11.078;2023-02-11T11:28:49;5.50;99.90
28677;DHT22;15858;48.338;11.078;2023-02-11T11:31:44;5.50;99.90
28677;DHT22;15858;48.338;11.078;2023-02-11T11:34:27;5.50;99.90
28677;DHT22;15858;48.338;11.078;2023-02-11T11:36:56;5.50;99.90
28677;DHT22;15858;48.338;11.078;2023-02-11T11:39:24;5.70;99.90
28677;DHT22;15858;48.338;11.078;2023-02-11T11:42:03;5.80;99.90
28677;DHT22;15858;48.338;11.078;2023-02-11T11:44:34;6.20;99.90
28677;DHT22;15858;48.338;11.078;2023-02-11T11:47:25;6.20;99.90
28677;DHT22;15858;48.338;11.078;2023-02-11T11:57:38;7.10;99.90
28677;DHT22;15858;48.338;11.078;2023-02-11T12:00:17;7.40;99.90
28677;DHT22;15858;48.338;11.078;2023-02-11T12:03:11;7.70;99.90
28677;DHT22;15858;48.338;11.078;2023-02-11T12:05:50;7.60;99.90
28677;DHT22;15858;48.338;11.078;2023-02-11T12:08:29;7.80;99.90
28677;DHT22;15858;48.338;11.078;2023-02-11T12:11:29;7.80;99.90
28677;DHT22;15858;48.338;11.078;2023-02-11T12:23:02;8.20;99.90
28677;DHT22;15858;48.338;11.078;2023-02-11T12:25:56;8.20;99.90
28677;DHT22;15858;48.338;11.078;2023-02-11T12:28:37;8.00;99.90
28677;DHT22;15858;48.338;11.078;2023-02-11T12:31:17;7.80;99.90
28677;DHT22;15858;48.338;11.078;2023-02-11T12:34:10;7.70;99.90
28677;DHT22;15858;48.338;11.078;2023-02-11T12:44:32;8.00;99.90
28677;DHT22;15858;48.338;11.078;2023-02-11T12:47:20;8.30;99.90
28677;DHT22;15858;48.338;11.078;2023-02-11T12:52:57;8.60;99.90
28677;DHT22;15858;48.338;11.078;2023-02-11T12:55:28;8.90;99.90
28677;DHT22;15858;48.338;11.078;2023-02-11T12:57:57;9.00;99.90
28677;DHT22;15858;48.338;11.078;2023-02-11T13:00:39;9.10;99.90
28677;DHT22;15858;48.338;11.078;2023-02-11T13:03:28;9.00;99.90
28677;DHT22;15858;48.338;11.078;2023-02-11T13:05:57;9.20;99.90
28677;DHT22;15858;48.338;11.078;2023-02-11T13:11:19;9.20;99.90
28677;DHT22;15858;48.338;11.078;2023-02-11T13:21:53;9.00;99.90
28677;DHT22;15858;48.338;11.078;2023-02-11T13:24:44;8.80;99.90
28677;DHT22;15858;48.338;11.078;2023-02-11T13:32:21;8.60;99.90
28677;DHT22;15858;48.338;11.078;2023-02-11T13:37:21;8.30;99.90
28677;DHT22;15858;48.338;11.078;2023-02-11T13:40:03;8.10;99.90
28677;DHT22;15858;48.338;11.078;2023-02-11T13:42:32;8.10;99.90
28677;DHT22;15858;48.338;11.078;2023-02-11T13:45:00;7.90;99.90
28677;DHT22;15858;48.338;11.078;2023-02-11T13:47:32;7.90;99.90
28677;DHT22;15858;48.338;11.078;2023-02-11T13:50:00;7.90;99.90
28677;DHT22;15858;48.338;11.078;2023-02-11T13:54:58;7.90;99.90
28677;DHT22;15858;48.338;11.078;2023-02-11T13:57:31;7.90;99.90
28677;DHT22;15858;48.338;11.078;2023-02-11T14:00:00;7.90;99.90
28677;DHT22;15858;48.338;11.078;2023-02-11T14:07:31;7.70;99.90
28677;DHT22;15858;48.338;11.078;2023-02-11T14:09:58;7.80;99.90
28677;DHT22;15858;48.338;11.078;2023-02-11T14:12:31;7.80;99.90
28677;DHT22;15858;48.338;11.078;2023-02-11T14:17:38;7.80;99.90
28677;DHT22;15858;48.338;11.078;2023-02-11T14:20:34;7.80;99.90
28677;DHT22;15858;48.338;11.078;2023-02-11T14:23:01;7.80;99.90
28677;DHT22;15858;48.338;11.078;2023-02-11T14:25:28;7.90;99.90
28677;DHT22;15858;48.338;11.078;2023-02-11T14:30:45;7.80;99.90
28677;DHT22;15858;48.338;11.078;2023-02-11T14:42:18;7.60;99.90
28677;DHT22;15858;48.338;11.078;2023-02-11T14:44:48;7.50;99.90
28677;DHT22;15858;48.338;11.078;2023-02-11T14:47:23;7.50;99.90
28677;DHT22;15858;48.338;11.078;2023-02-11T14:49:52;7.50;99.90
28677;DHT22;15858;48.338;11.078;2023-02-11T14:52:26;7.50;99.90
28677;DHT22;15858;48.338;11.078;2023-02-11T14:57:46;7.60;99.90
28677;DHT22;15858;48.338;11.078;2023-02-11T15:00:18;7.50;99.90
28677;DHT22;15858;48.338;11.078;2023-02-11T15:02:45;7.50;99.90
28677;DHT22;15858;48.338;11.078;2023-02-11T15:05:25;7.40;99.90
28677;DHT22;15858;48.338;11.078;2023-02-11T15:07:54;7.50;99.90
28677;DHT22;15858;48.338;11.078;2023-02-11T15:10:37;7.40;99.90
28677;DHT22;15858;48.338;11.078;2023-02-11T15:13:07;7.40;99.90
28677;DHT22;15858;48.338;11.078;2023-02-11T15:15:34;7.20;99.90
28677;DHT22;15858;48.338;11.078;2023-02-11T15:18:05;7.20;99.90
28677;DHT22;15858;48.338;11.078;2023-02-11T15:20:32;7.20;99.90
28677;DHT22;15858;48.338;11.078;2023-02-11T15:23:06;7.10;99.90
28677;DHT22;15858;48.338;11.078;2023-02-11T15:25:33;7.10;99.90
28677;DHT22;15858;48.338;11.078;2023-02-11T15:28:18;7.10;99.90
28677;DHT22;15858;48.338;11.078;2023-02-11T15:30:46;7.00;99.90
28677;DHT22;15858;48.338;11.078;2023-02-11T15:33:22;7.00;99.90
28677;DHT22;15858;48.338;11.078;2023-02-11T15:35:49;7.00;99.90
28677;DHT22;15858;48.338;11.078;2023-02-11T15:38:15;6.90;99.90
28677;DHT22;15858;48.338;11.078;2023-02-11T15:40:55;6.90;99.90
28677;DHT22;15858;48.338;11.078;2023-02-11T15:43:21;6.80;99.90
28677;DHT22;15858;48.338;11.078;2023-02-11T15:45:59;6.70;99.90
28677;DHT22;15858;48.338;11.078;2023-02-11T15:48:31;6.70;99.90
28677;DHT22;15858;48.338;11.078;2023-02-11T15:51:04;6.60;99.90
28677;DHT22;15858;48.338;11.078;2023-02-11T15:53:36;6.60;99.90
28677;DHT22;15858;48.338;11.078;2023-02-11T15:56:12;6.60;99.90
28677;DHT22;15858;48.338;11.078;2023-02-11T15:58:42;6.50;99.90
28677;DHT22;15858;48.338;11.078;2023-02-11T16:01:11;6.40;99.90
28677;DHT22;15858;48.338;11.078;2023-02-11T16:03:39;6.30;99.90
28677;DHT22;15858;48.338;11.078;2023-02-11T16:06:22;6.30;99.90
28677;DHT22;15858;48.338;11.078;2023-02-11T16:08:57;6.20;99.90
28677;DHT22;15858;48.338;11.078;2023-02-11T16:11:31;6.10;99.90
28677;DHT22;15858;48.338;11.078;2023-02-11T16:13:59;6.10;99.90
28677;DHT22;15858;48.338;11.078;2023-02-11T16:16:32;6.00;99.90
28677;DHT22;15858;48.338;11.078;2023-02-11T16:19:00;5.90;99.90
28677;DHT22;15858;48.338;11.078;2023-02-11T16:21:36;5.80;99.90
28677;DHT22;15858;48.338;11.078;2023-02-11T16:24:13;5.80;99.90
28677;DHT22;15858;48.338;11.078;2023-02-11T16:26:47;5.70;99.90
28677;DHT22;15858;48.338;11.078;2023-02-11T16:29:22;5.70;99.90
28677;DHT22;15858;48.338;11.078;2023-02-11T16:31:52;5.60;99.90
28677;DHT22;15858;48.338;11.078;2023-02-11T16:34:23;5.60;99.90
28677;DHT22;15858;48.338;11.078;2023-02-11T16:36:51;5.50;99.90
28677;DHT22;15858;48.338;11.078;2023-02-11T16:39:18;5.40;99.90
28677;DHT22;15858;48.338;11.078;2023-02-11T16:41:45;5.40;99.90
28677;DHT22;15858;48.338;11.078;2023-02-11T16:44:12;5.30;99.90
28677;DHT22;15858;48.338;11.078;2023-02-11T16:46:39;5.30;99.90
28677;DHT22;15858;48.338;11.078;2023-02-11T16:49:09;5.30;99.90
28677;DHT22;15858;48.338;11.078;2023-02-11T16:51:39;5.20;99.90
28677;DHT22;15858;48.338;11.078;2023-02-11T16:54:07;5.10;99.90
28677;DHT22;15858;48.338;11.078;2023-02-11T16:56:34;5.00;99.90
28677;DHT22;15858;48.338;11.078;2023-02-11T16:59:01;4.90;99.90
28677;DHT22;15858;48.338;11.078;2023-02-11T17:01:28;4.90;99.90
28677;DHT22;15858;48.338;11.078;2023-02-11T17:03:54;4.80;99.90
28677;DHT22;15858;48.338;11.078;2023-02-11T17:06:21;4.80;99.90
28677;DHT22;15858;48.338;11.078;2023-02-11T17:08:48;4.80;99.90
28677;DHT22;15858;48.338;11.078;2023-02-11T17:11:14;4.70;99.90
28677;DHT22;15858;48.338;11.078;2023-02-11T17:13:42;4.70;99.90
28677;DHT22;15858;48.338;11.078;2023-02-11T17:16:16;4.60;99.90
28677;DHT22;15858;48.338;11.078;2023-02-11T17:18:43;4.60;99.90
28677;DHT22;15858;48.338;11.078;2023-02-11T17:21:10;4.50;99.90
28677;DHT22;15858;48.338;11.078;2023-02-11T17:23:37;4.50;99.90
28677;DHT22;15858;48.338;11.078;2023-02-11T17:26:04;4.50;99.90
28677;DHT22;15858;48.338;11.078;2023-02-11T17:28:30;4.50;99.90
28677;DHT22;15858;48.338;11.078;2023-02-11T17:30:58;4.40;99.90
28677;DHT22;15858;48.338;11.078;2023-02-11T17:33:24;4.40;99.90
28677;DHT22;15858;48.338;11.078;2023-02-11T17:35:51;4.30;99.90
28677;DHT22;15858;48.338;11.078;2023-02-11T17:38:18;4.30;99.90
28677;DHT22;15858;48.338;11.078;2023-02-11T17:40:45;4.30;99.90
28677;DHT22;15858;48.338;11.078;2023-02-11T17:43:11;4.30;99.90
28677;DHT22;15858;48.338;11.078;2023-02-11T17:45:41;4.20;99.90
28677;DHT22;15858;48.338;11.078;2023-02-11T17:48:08;4.20;99.90
28677;DHT22;15858;48.338;11.078;2023-02-11T17:50:35;4.20;99.90
28677;DHT22;15858;48.338;11.078;2023-02-11T17:53:02;4.20;99.90
28677;DHT22;15858;48.338;11.078;2023-02-11T17:55:32;4.10;99.90